Time;durP1;ratioP1;P1;durP2;ratioP2;P2;SDS_P1;SDS_P2;PMS_P1;PMS_P2;Temp;Humidity;BMP_temperature;BMP_pressure;BME280_temperature;BME280_humidity;BME280_pressure;Samples;Min_cycle;Max_cycle;Signal;HPM_P1;HPM_P2
2021/01/12 00:01:44;;;;;;;15.77;10.85;;;2.30;79.00;;;;;;5089124;28;20039;-63
2021/01/12 00:04:11;;;;;;;15.98;11.38;;;2.40;78.90;;;;;;5083317;28;20036;-60
2021/01/12 00:06:37;;;;;;;17.27;10.98;;;2.30;79.00;;;;;;5095332;28;20070;-64
2021/01/12 00:09:03;;;;;;;16.88;11.55;;;2.30;78.90;;;;;;5094092;28;20039;-66
2021/01/12 00:11:29;;;;;;;15.88;11.52;;;2.30;78.60;;;;;;5085190;28;20046;-66
2021/01/12 00:13:55;;;;;;;20.67;12.40;;;2.30;78.30;;;;;;5073342;28;20116;-66
2021/01/12 00:16:20;;;;;;;18.38;12.38;;;2.30;78.70;;;;;;5074004;28;20063;-62
2021/01/12 00:18:49;;;;;;;18.38;13.07;;;2.20;78.40;;;;;;5074045;28;20123;-62
2021/01/12 00:21:15;;;;;;;18.92;12.93;;;2.20;78.50;;;;;;5073602;28;20029;-62
2021/01/12 00:23:41;;;;;;;20.25;13.43;;;2.20;78.50;;;;;;5073312;28;20029;-62
2021/01/12 00:26:07;;;;;;;18.95;13.50;;;2.30;78.40;;;;;;5073701;28;20093;-65
2021/01/12 00:28:36;;;;;;;19.63;13.30;;;2.20;78.20;;;;;;5082065;28;20382;-60
2021/01/12 00:31:05;;;;;;;20.50;13.15;;;2.30;78.30;;;;;;5093642;28;20047;-59
2021/01/12 00:33:32;;;;;;;19.50;12.27;;;2.30;78.20;;;;;;5075603;28;20035;-62
2021/01/12 00:36:06;;;;;;;18.88;13.18;;;2.30;78.20;;;;;;5092790;28;20147;-61
2021/01/12 00:38:32;;;;;;;19.88;13.32;;;2.30;78.00;;;;;;5064838;28;20036;-61
2021/01/12 00:40:58;;;;;;;19.13;13.18;;;2.30;78.10;;;;;;5072461;28;20028;-66
2021/01/12 00:43:25;;;;;;;18.00;12.38;;;2.30;78.10;;;;;;5073094;28;20036;-61
2021/01/12 00:45:51;;;;;;;20.10;13.07;;;2.20;78.20;;;;;;5076952;28;20036;-62
2021/01/12 00:48:19;;;;;;;18.67;13.57;;;2.20;78.10;;;;;;5092995;28;20020;-62
2021/01/12 00:50:45;;;;;;;19.67;13.15;;;2.30;78.10;;;;;;5091465;28;20544;-61
2021/01/12 00:53:10;;;;;;;24.45;14.15;;;2.30;77.80;;;;;;5077165;28;20036;-62
2021/01/12 00:55:36;;;;;;;18.98;13.35;;;2.20;78.00;;;;;;5092641;28;20564;-61
2021/01/12 00:58:01;;;;;;;21.40;13.07;;;2.20;78.20;;;;;;5075208;28;20475;-61
2021/01/12 01:00:27;;;;;;;20.67;13.65;;;2.30;78.20;;;;;;5091473;28;20506;-61
2021/01/12 01:02:52;;;;;;;19.20;13.50;;;2.30;78.10;;;;;;5093235;28;20130;-62
2021/01/12 01:05:18;;;;;;;21.08;13.90;;;2.30;78.20;;;;;;5070880;28;20047;-62
2021/01/12 01:07:50;;;;;;;22.25;14.38;;;2.30;78.10;;;;;;5082434;28;20032;-61
2021/01/12 01:10:15;;;;;;;19.88;13.82;;;2.40;78.20;;;;;;5102651;28;20021;-60
2021/01/12 01:12:41;;;;;;;20.58;14.40;;;2.40;78.10;;;;;;5078252;28;20470;-61
2021/01/12 01:15:07;;;;;;;19.83;14.50;;;2.40;78.30;;;;;;5092450;28;20044;-63
2021/01/12 01:17:36;;;;;;;21.92;14.88;;;2.30;78.40;;;;;;5092963;28;20079;-61
2021/01/12 01:20:03;;;;;;;22.38;14.50;;;2.40;78.50;;;;;;5092607;28;20115;-62
2021/01/12 01:22:29;;;;;;;20.08;14.60;;;2.30;78.50;;;;;;5089750;28;20040;-62
2021/01/12 01:24:54;;;;;;;20.88;14.35;;;2.30;78.90;;;;;;5071505;28;20044;-60
2021/01/12 01:27:20;;;;;;;21.70;15.15;;;2.30;78.80;;;;;;5072144;28;20029;-60
2021/01/12 01:29:46;;;;;;;22.98;14.05;;;2.40;79.00;;;;;;5072309;28;20044;-63
2021/01/12 01:32:11;;;;;;;22.05;15.65;;;2.40;78.70;;;;;;5072301;28;20028;-61
2021/01/12 01:34:37;;;;;;;23.95;15.63;;;2.50;78.70;;;;;;5071949;28;20040;-62
2021/01/12 01:37:04;;;;;;;21.73;14.63;;;2.50;78.70;;;;;;5084150;28;20027;-61
2021/01/12 01:39:29;;;;;;;22.88;15.80;;;2.50;79.00;;;;;;5095269;28;20537;-61
2021/01/12 01:41:59;;;;;;;21.13;14.73;;;2.40;79.30;;;;;;5093750;28;20040;-61
2021/01/12 01:44:25;;;;;;;21.35;15.65;;;2.50;79.20;;;;;;5091355;28;20483;-62
2021/01/12 01:46:51;;;;;;;21.27;15.43;;;2.50;79.30;;;;;;5073942;28;20098;-62
2021/01/12 01:49:17;;;;;;;21.40;14.88;;;2.50;79.60;;;;;;5084726;28;20523;-60
2021/01/12 01:51:42;;;;;;;20.33;14.90;;;2.60;79.50;;;;;;5086868;28;20024;-62
2021/01/12 01:54:11;;;;;;;20.27;15.15;;;2.60;79.60;;;;;;5059722;28;20467;-62
2021/01/12 01:56:37;;;;;;;23.00;14.57;;;2.60;79.80;;;;;;5053786;28;20043;-62
2021/01/12 01:59:03;;;;;;;22.85;14.98;;;2.60;80.00;;;;;;5080831;28;20044;-62
2021/01/12 02:01:28;;;;;;;20.50;14.50;;;2.60;80.00;;;;;;5073974;28;20380;-62
2021/01/12 02:04:09;;;;;;;23.08;14.63;;;2.60;80.20;;;;;;5079856;28;20117;-63
2021/01/12 02:06:37;;;;;;;23.85;14.63;;;2.60;80.20;;;;;;5091598;28;20081;-62
2021/01/12 02:09:07;;;;;;;21.73;14.70;;;2.60;80.30;;;;;;5082276;28;20132;-63
2021/01/12 02:11:41;;;;;;;21.63;15.80;;;2.60;80.60;;;;;;5057949;28;20534;-62
2021/01/12 02:14:15;;;;;;;21.10;15.77;;;2.50;81.30;;;;;;5075609;28;20036;-64
2021/01/12 02:16:41;;;;;;;20.08;14.35;;;2.60;81.40;;;;;;5073744;28;20279;-65
2021/01/12 02:19:10;;;;;;;24.35;15.85;;;2.50;82.00;;;;;;5084050;28;20040;-62
2021/01/12 02:21:46;;;;;;;21.30;14.98;;;2.40;82.30;;;;;;5053863;28;20506;-60
2021/01/12 02:24:13;;;;;;;25.67;15.80;;;2.40;82.70;;;;;;5080739;28;20077;-60
2021/01/12 02:26:38;;;;;;;20.27;15.48;;;2.30;83.20;;;;;;5091849;28;20036;-60
2021/01/12 02:29:04;;;;;;;25.13;16.88;;;2.30;83.20;;;;;;5091261;28;20505;-60
2021/01/12 02:31:30;;;;;;;23.27;15.73;;;2.20;83.70;;;;;;5072869;28;20037;-59
2021/01/12 02:34:00;;;;;;;23.13;16.23;;;2.20;83.80;;;;;;5091679;28;20161;-60
2021/01/12 02:36:28;;;;;;;24.10;16.98;;;2.20;84.20;;;;;;5060360;28;20040;-59
2021/01/12 02:38:54;;;;;;;24.05;15.48;;;2.10;84.40;;;;;;5088942;28;20552;-62
2021/01/12 02:41:19;;;;;;;24.10;15.82;;;2.10;84.50;;;;;;5083258;28;20045;-61
2021/01/12 02:43:47;;;;;;;21.92;16.60;;;2.10;84.70;;;;;;5070949;28;20377;-63
2021/01/12 02:46:15;;;;;;;23.85;15.93;;;2.10;84.80;;;;;;5072112;28;20029;-61
2021/01/12 02:48:41;;;;;;;24.45;16.02;;;2.10;84.90;;;;;;5081051;28;20032;-60
2021/01/12 02:51:06;;;;;;;23.02;16.50;;;2.10;85.00;;;;;;5091441;28;20502;-60
2021/01/12 02:53:32;;;;;;;21.85;16.55;;;2.10;85.50;;;;;;5092334;28;20028;-60
2021/01/12 02:55:57;;;;;;;22.95;17.55;;;2.10;85.70;;;;;;5084395;28;20028;-61
2021/01/12 02:58:23;;;;;;;22.10;16.63;;;2.00;85.90;;;;;;5056227;28;20491;-56
2021/01/12 03:00:49;;;;;;;25.85;17.33;;;2.00;86.50;;;;;;5091349;28;20040;-59
2021/01/12 03:03:14;;;;;;;27.77;17.83;;;2.00;86.60;;;;;;5078786;28;20108;-62
2021/01/12 03:05:40;;;;;;;29.42;18.42;;;2.00;86.50;;;;;;5071631;28;20158;-63
2021/01/12 03:08:06;;;;;;;25.15;18.35;;;2.00;86.80;;;;;;5090557;28;20032;-59
2021/01/12 03:10:32;;;;;;;25.10;17.58;;;1.90;87.20;;;;;;5086582;28;20043;-59
2021/01/12 03:12:57;;;;;;;26.98;19.00;;;1.90;87.40;;;;;;5073496;28;20032;-62
2021/01/12 03:15:23;;;;;;;25.83;17.30;;;1.90;87.70;;;;;;5089039;28;20067;-60
2021/01/12 03:17:48;;;;;;;29.17;18.55;;;1.80;87.80;;;;;;5077727;28;20040;-58
2021/01/12 03:20:14;;;;;;;26.15;17.95;;;1.80;87.70;;;;;;5070994;28;20032;-62
2021/01/12 03:22:41;;;;;;;27.80;18.08;;;1.90;87.80;;;;;;5086051;28;20040;-60
2021/01/12 03:25:07;;;;;;;28.05;17.42;;;1.90;87.80;;;;;;5094368;28;20032;-58
2021/01/12 03:27:33;;;;;;;26.95;18.65;;;1.90;88.00;;;;;;5063899;28;20375;-58
2021/01/12 03:29:59;;;;;;;28.10;18.88;;;1.90;88.00;;;;;;5074933;28;20040;-58
2021/01/12 03:32:24;;;;;;;26.13;17.42;;;1.90;87.90;;;;;;5086535;28;20043;-61
2021/01/12 03:34:50;;;;;;;25.27;17.23;;;1.90;87.80;;;;;;5096490;28;20203;-61
2021/01/12 03:37:15;;;;;;;24.88;17.08;;;2.00;87.90;;;;;;5095387;28;20032;-63
2021/01/12 03:39:41;;;;;;;27.13;17.83;;;2.00;87.80;;;;;;5098587;28;20040;-61
2021/01/12 03:42:06;;;;;;;25.92;16.95;;;2.00;88.00;;;;;;5104744;28;20036;-61
2021/01/12 03:44:32;;;;;;;25.45;18.02;;;2.00;87.90;;;;;;5102536;28;20036;-59
2021/01/12 03:46:57;;;;;;;23.20;16.77;;;2.00;87.90;;;;;;5075718;28;20097;-60
2021/01/12 03:49:23;;;;;;;26.63;18.05;;;2.10;87.60;;;;;;5076224;28;20048;-58
2021/01/12 03:51:49;;;;;;;21.63;16.63;;;2.10;87.40;;;;;;5094783;28;20052;-60
2021/01/12 03:54:15;;;;;;;24.15;16.50;;;2.10;87.50;;;;;;5089494;28;20032;-62
2021/01/12 03:56:40;;;;;;;23.48;16.98;;;2.10;87.60;;;;;;5085954;28;20032;-59
2021/01/12 03:59:06;;;;;;;21.70;15.15;;;2.10;87.60;;;;;;5093988;28;20183;-61
2021/01/12 04:01:31;;;;;;;23.58;17.08;;;2.10;87.70;;;;;;5055888;28;20364;-61
2021/01/12 04:03:57;;;;;;;23.10;17.17;;;2.20;87.60;;;;;;5062070;28;20047;-62
2021/01/12 04:06:23;;;;;;;24.33;17.10;;;2.20;87.60;;;;;;5083749;28;20089;-61
2021/01/12 04:08:48;;;;;;;23.20;16.08;;;2.20;88.50;;;;;;5060545;28;20490;-63
2021/01/12 04:11:17;;;;;;;23.17;16.75;;;2.30;87.40;;;;;;5093745;28;20067;-60
2021/01/12 04:13:43;;;;;;;22.23;16.02;;;2.20;87.30;;;;;;5083287;28;20067;-63
2021/01/12 04:16:09;;;;;;;19.83;15.50;;;2.10;88.10;;;;;;5074601;28;20071;-62
2021/01/12 04:18:34;;;;;;;22.67;15.93;;;2.10;88.10;;;;;;5092824;28;20043;-61
2021/01/12 04:21:01;;;;;;;22.20;15.80;;;2.20;88.00;;;;;;5086824;28;20044;-61
2021/01/12 04:23:26;;;;;;;19.88;14.80;;;2.30;87.70;;;;;;5074356;28;20028;-60
2021/01/12 04:25:52;;;;;;;22.60;14.77;;;2.20;88.20;;;;;;5079694;28;20058;-61
2021/01/12 04:28:18;;;;;;;21.95;15.15;;;2.20;88.20;;;;;;5095263;28;20028;-61
2021/01/12 04:30:44;;;;;;;20.88;14.85;;;2.30;88.00;;;;;;5071974;28;20051;-62
2021/01/12 04:33:09;;;;;;;24.45;15.85;;;2.20;88.40;;;;;;5075364;28;20107;-59
2021/01/12 04:35:35;;;;;;;21.85;15.43;;;2.20;88.70;;;;;;5090576;28;20119;-59
2021/01/12 04:38:01;;;;;;;22.48;15.45;;;2.10;89.10;;;;;;5088038;28;20036;-62
2021/01/12 04:40:27;;;;;;;21.20;15.15;;;2.10;89.50;;;;;;5093582;28;20031;-58
2021/01/12 04:42:54;;;;;;;20.23;14.00;;;2.00;89.50;;;;;;5093352;28;20054;-61
2021/01/12 04:45:20;;;;;;;22.17;15.20;;;2.00;89.40;;;;;;5093360;28;20032;-64
2021/01/12 04:47:45;;;;;;;18.65;13.00;;;2.00;89.30;;;;;;5086316;28;20036;-61
2021/01/12 04:50:11;;;;;;;20.27;14.68;;;2.00;89.20;;;;;;5075287;28;20044;-62
2021/01/12 04:52:47;;;;;;;18.73;13.85;;;2.00;89.20;;;;;;5073719;28;20122;-57
2021/01/12 04:55:15;;;;;;;17.20;12.82;;;2.00;89.50;;;;;;5073186;28;20036;-58
2021/01/12 04:57:41;;;;;;;18.48;12.85;;;2.10;89.20;;;;;;5081964;28;20177;-62
2021/01/12 05:00:14;;;;;;;20.15;13.45;;;2.00;89.40;;;;;;5089202;28;20056;-63
2021/01/12 05:02:40;;;;;;;16.58;12.50;;;2.00;89.70;;;;;;5082835;28;20028;-61
2021/01/12 05:05:07;;;;;;;19.35;12.60;;;2.00;89.70;;;;;;5096786;28;20036;-62
2021/01/12 05:07:38;;;;;;;20.88;13.35;;;2.00;89.80;;;;;;5099444;28;20024;-62
2021/01/12 05:10:11;;;;;;;20.13;13.15;;;2.00;90.00;;;;;;5098352;28;20035;-66
2021/01/12 05:12:39;;;;;;;18.40;13.18;;;2.00;90.10;;;;;;5083386;28;20471;-62
2021/01/12 05:15:07;;;;;;;16.85;11.23;;;2.10;90.00;;;;;;5081089;28;20032;-64
2021/01/12 05:17:36;;;;;;;16.38;11.68;;;2.00;90.00;;;;;;5080585;28;20031;-63
2021/01/12 05:20:03;;;;;;;16.50;11.82;;;2.10;90.00;;;;;;5098198;28;20038;-61
2021/01/12 05:22:32;;;;;;;15.20;11.80;;;2.10;90.10;;;;;;5097926;28;20055;-65
2021/01/12 05:25:41;;;;;;;16.00;11.63;;;2.10;90.00;;;;;;5097395;28;20032;-63
2021/01/12 05:27:52;;;;;;;17.38;12.63;;;2.10;90.20;;;;;;5086971;28;20494;-62
2021/01/12 05:30:25;;;;;;;16.70;12.00;;;2.00;90.30;;;;;;5094080;28;20040;-64
2021/01/12 05:32:56;;;;;;;16.60;11.55;;;2.00;90.50;;;;;;5095054;28;20032;-63
2021/01/12 05:35:25;;;;;;;14.95;10.85;;;2.00;90.60;;;;;;5093699;28;20509;-65
2021/01/12 05:37:54;;;;;;;14.55;10.55;;;1.90;90.60;;;;;;5093425;28;20036;-63
2021/01/12 05:40:23;;;;;;;14.63;10.25;;;1.90;90.70;;;;;;5074851;28;20060;-63
2021/01/12 05:42:49;;;;;;;13.40;10.25;;;2.00;90.70;;;;;;5093066;28;20178;-64
2021/01/12 05:45:15;;;;;;;12.60;9.10;;;1.90;90.70;;;;;;5092990;28;20119;-63
2021/01/12 05:47:40;;;;;;;13.65;9.68;;;1.90;90.70;;;;;;5074767;28;20028;-63
2021/01/12 05:50:20;;;;;;;12.40;9.68;;;1.90;90.70;;;;;;5092723;28;20032;-61
2021/01/12 05:53:04;;;;;;;12.68;8.93;;;1.90;90.70;;;;;;5092898;28;20073;-63
2021/01/12 05:55:34;;;;;;;13.60;10.05;;;1.80;90.90;;;;;;5074640;28;20031;-65
2021/01/12 05:58:15;;;;;;;12.88;9.90;;;1.80;91.00;;;;;;5092895;28;20039;-63
2021/01/12 06:00:43;;;;;;;13.25;10.48;;;1.80;91.20;;;;;;5092905;28;20042;-59
2021/01/12 06:03:14;;;;;;;13.07;9.77;;;1.80;91.30;;;;;;5092793;28;20078;-61
2021/01/12 06:05:44;;;;;;;13.25;10.00;;;1.70;91.40;;;;;;5074096;28;20032;-63
2021/01/12 06:08:13;;;;;;;14.40;11.25;;;1.80;91.50;;;;;;5086682;28;20106;-64
2021/01/12 06:10:41;;;;;;;15.38;11.07;;;1.80;91.50;;;;;;5054066;28;20036;-65
2021/01/12 06:13:15;;;;;;;18.60;12.65;;;1.80;91.50;;;;;;5076861;28;20530;-66
2021/01/12 06:15:43;;;;;;;16.75;10.93;;;1.80;91.70;;;;;;5092008;28;20494;-63
2021/01/12 06:18:15;;;;;;;16.58;11.27;;;1.70;91.80;;;;;;5060769;28;20032;-65
2021/01/12 06:20:54;;;;;;;17.55;11.93;;;1.70;91.90;;;;;;5071928;28;20078;-65
2021/01/12 06:23:39;;;;;;;17.27;12.20;;;1.70;92.00;;;;;;5085899;28;20678;-64
2021/01/12 06:26:05;;;;;;;17.17;12.40;;;1.60;92.10;;;;;;5092521;28;20102;-64
2021/01/12 06:28:31;;;;;;;15.85;11.70;;;1.60;92.10;;;;;;5072015;28;20392;-65
2021/01/12 06:30:57;;;;;;;14.90;10.85;;;1.70;92.10;;;;;;5069780;28;20048;-64
2021/01/12 06:33:23;;;;;;;14.48;11.23;;;1.60;92.20;;;;;;5088284;28;20036;-63
2021/01/12 06:35:51;;;;;;;15.20;10.63;;;1.60;92.20;;;;;;5094230;28;20118;-63
2021/01/12 06:38:25;;;;;;;14.27;10.60;;;1.60;92.30;;;;;;5079271;28;20029;-64
2021/01/12 06:40:53;;;;;;;14.30;10.38;;;1.60;92.30;;;;;;5073364;28;20074;-65
2021/01/12 06:43:24;;;;;;;17.05;11.32;;;1.60;92.20;;;;;;5087987;28;20398;-62
2021/01/12 06:45:52;;;;;;;13.93;10.13;;;1.70;92.20;;;;;;5093029;28;20043;-61
2021/01/12 06:48:18;;;;;;;13.57;10.10;;;1.70;92.10;;;;;;5086805;28;20062;-61
2021/01/12 06:50:46;;;;;;;15.80;10.93;;;1.70;92.20;;;;;;5101344;28;20103;-62
2021/01/12 06:53:15;;;;;;;15.63;11.77;;;1.60;92.30;;;;;;5083856;28;20079;-64
2021/01/12 06:55:41;;;;;;;17.25;12.20;;;1.60;92.50;;;;;;5088240;28;20044;-64
2021/01/12 06:58:11;;;;;;;15.23;11.07;;;1.60;92.50;;;;;;5105972;28;20400;-64
2021/01/12 07:00:37;;;;;;;16.02;12.13;;;1.60;92.40;;;;;;5098958;28;20032;-64
2021/01/12 07:03:04;;;;;;;15.80;11.07;;;1.60;92.40;;;;;;5065827;28;20044;-64
2021/01/12 07:05:41;;;;;;;14.65;10.88;;;1.70;92.30;;;;;;5063486;28;20044;-64
2021/01/12 07:08:09;;;;;;;16.85;11.68;;;1.70;92.30;;;;;;5095038;28;20020;-68
2021/01/12 07:10:45;;;;;;;18.30;11.20;;;1.60;92.40;;;;;;5095610;28;20115;-62
2021/01/12 07:13:11;;;;;;;15.65;10.95;;;1.60;92.50;;;;;;5095497;28;20053;-66
2021/01/12 07:15:50;;;;;;;13.82;9.98;;;1.70;92.40;;;;;;5095560;28;20166;-63
2021/01/12 07:18:23;;;;;;;13.23;9.52;;;1.70;92.40;;;;;;5095555;28;20120;-65
2021/01/12 07:20:50;;;;;;;12.55;9.75;;;1.70;92.30;;;;;;5095723;28;20054;-63
2021/01/12 07:23:16;;;;;;;13.10;9.50;;;1.70;92.40;;;;;;5096158;28;20036;-68
2021/01/12 07:25:45;;;;;;;11.40;8.73;;;1.70;92.40;;;;;;5095371;28;20090;-63
2021/01/12 07:28:18;;;;;;;14.02;9.30;;;1.70;92.40;;;;;;5095085;28;20054;-62
2021/01/12 07:30:52;;;;;;;14.88;9.90;;;1.70;92.30;;;;;;5071119;28;20036;-68
2021/01/12 07:33:21;;;;;;;13.02;9.93;;;1.70;92.30;;;;;;5076986;28;20103;-67
2021/01/12 07:35:52;;;;;;;11.60;9.15;;;1.80;92.30;;;;;;5094130;28;20058;-66
2021/01/12 07:38:22;;;;;;;12.30;8.85;;;1.80;92.30;;;;;;5075121;28;20037;-61
2021/01/12 07:40:47;;;;;;;12.50;9.02;;;1.80;92.20;;;;;;5078964;28;20029;-63
2021/01/12 07:43:18;;;;;;;11.45;9.23;;;1.80;92.10;;;;;;5077805;28;20048;-63
2021/01/12 07:45:46;;;;;;;10.82;8.43;;;1.80;92.20;;;;;;5075431;28;20099;-64
2021/01/12 07:48:13;;;;;;;12.45;8.27;;;1.90;92.10;;;;;;5041305;28;20462;-68
2021/01/12 07:50:42;;;;;;;12.63;9.20;;;2.00;91.90;;;;;;5088802;28;20042;-67
2021/01/12 07:53:08;;;;;;;12.90;8.63;;;1.90;92.00;;;;;;5065479;28;20063;-68
2021/01/12 07:55:38;;;;;;;12.88;7.63;;;2.00;91.80;;;;;;5070037;28;20090;-68
2021/01/12 07:58:04;;;;;;;11.63;7.57;;;2.10;91.60;;;;;;5089003;28;20047;-67
2021/01/12 08:00:30;;;;;;;11.25;8.00;;;2.10;91.50;;;;;;5092746;28;20044;-68
2021/01/12 08:02:57;;;;;;;10.63;6.90;;;2.10;91.50;;;;;;5087766;28;20039;-68
2021/01/12 08:05:24;;;;;;;10.80;7.03;;;2.20;91.30;;;;;;5076020;28;20084;-67
2021/01/12 08:07:59;;;;;;;10.27;6.65;;;2.20;91.30;;;;;;5076122;28;20165;-69
2021/01/12 08:10:24;;;;;;;8.10;6.53;;;2.20;91.10;;;;;;5094962;28;20051;-67
2021/01/12 08:12:50;;;;;;;8.77;6.63;;;2.20;91.10;;;;;;5089847;28;20059;-66
2021/01/12 08:15:16;;;;;;;9.10;6.57;;;2.30;91.00;;;;;;5096571;28;20071;-67
2021/01/12 08:17:49;;;;;;;8.07;6.55;;;2.40;90.80;;;;;;5094127;28;20123;-66
2021/01/12 08:20:17;;;;;;;9.82;6.88;;;2.30;90.80;;;;;;5094009;28;20032;-64
2021/01/12 08:22:50;;;;;;;7.95;5.85;;;2.40;90.90;;;;;;5073840;28;20032;-65
2021/01/12 08:25:16;;;;;;;9.68;6.05;;;2.30;90.90;;;;;;5073807;28;20024;-63
2021/01/12 08:27:47;;;;;;;7.63;5.20;;;2.40;90.80;;;;;;5056148;28;20037;-63
2021/01/12 08:30:13;;;;;;;7.30;5.15;;;2.40;90.80;;;;;;5073395;28;20052;-69
2021/01/12 08:32:45;;;;;;;5.80;4.63;;;2.40;90.80;;;;;;5074224;28;20040;-63
2021/01/12 08:35:13;;;;;;;5.82;4.25;;;2.40;90.60;;;;;;5056379;28;20050;-65
2021/01/12 08:37:41;;;;;;;7.97;4.60;;;2.40;90.50;;;;;;5074998;28;20024;-62
2021/01/12 08:40:17;;;;;;;5.97;4.53;;;2.50;90.50;;;;;;5075272;28;20032;-64
2021/01/12 08:42:43;;;;;;;4.70;3.58;;;2.50;90.50;;;;;;5073226;28;20033;-64
2021/01/12 08:45:17;;;;;;;5.28;4.03;;;2.40;90.40;;;;;;5072889;28;20024;-62
2021/01/12 08:47:45;;;;;;;4.28;3.60;;;2.40;90.40;;;;;;5072955;28;20028;-64
2021/01/12 08:50:11;;;;;;;5.65;3.97;;;2.50;90.50;;;;;;5073448;28;20024;-64
2021/01/12 08:52:38;;;;;;;6.65;4.57;;;2.50;90.50;;;;;;5074139;28;20031;-64
2021/01/12 08:55:25;;;;;;;4.85;3.70;;;2.50;90.60;;;;;;5073770;28;20388;-65
2021/01/12 08:57:58;;;;;;;4.80;3.85;;;2.50;90.60;;;;;;5073182;28;20111;-65
2021/01/12 09:00:34;;;;;;;4.35;3.42;;;2.50;90.60;;;;;;5073832;28;20575;-63
2021/01/12 09:03:00;;;;;;;4.57;3.60;;;2.50;90.50;;;;;;5055584;28;20059;-62
2021/01/12 09:05:27;;;;;;;4.65;3.70;;;2.50;90.50;;;;;;5073112;28;20032;-64
2021/01/12 09:08:05;;;;;;;4.85;3.70;;;2.50;90.50;;;;;;5073348;28;20020;-65
2021/01/12 09:10:33;;;;;;;5.00;3.90;;;2.50;90.50;;;;;;5081627;28;20391;-69
2021/01/12 09:12:59;;;;;;;4.47;3.65;;;2.50;90.50;;;;;;5076886;28;20043;-65
2021/01/12 09:15:36;;;;;;;5.03;4.20;;;2.50;90.60;;;;;;5091330;28;20032;-66
2021/01/12 09:18:09;;;;;;;3.83;3.40;;;2.60;90.50;;;;;;5091493;28;20040;-67
2021/01/12 09:20:38;;;;;;;5.47;4.07;;;2.60;90.50;;;;;;5090190;28;20039;-66
2021/01/12 09:23:11;;;;;;;6.95;3.60;;;2.60;90.50;;;;;;5092692;28;20035;-65
2021/01/12 09:25:40;;;;;;;4.97;4.07;;;2.60;90.50;;;;;;5072726;28;20032;-65
2021/01/12 09:28:14;;;;;;;5.03;4.32;;;2.70;90.50;;;;;;5087296;28;20482;-65
2021/01/12 09:30:41;;;;;;;4.78;3.92;;;2.60;90.60;;;;;;5094536;28;20071;-64
2021/01/12 09:33:07;;;;;;;5.53;4.22;;;2.60;90.50;;;;;;5058800;28;20403;-65
2021/01/12 09:35:38;;;;;;;7.55;3.90;;;2.60;90.50;;;;;;5073811;28;20032;-65
2021/01/12 09:38:04;;;;;;;4.85;3.80;;;2.60;90.70;;;;;;5065979;28;20056;-64
2021/01/12 09:40:30;;;;;;;4.70;3.70;;;2.70;90.50;;;;;;5072838;28;20037;-64
2021/01/12 09:42:57;;;;;;;5.13;3.10;;;2.70;90.50;;;;;;5090992;28;20028;-65
2021/01/12 09:45:24;;;;;;;4.82;3.25;;;2.70;90.40;;;;;;5092950;28;20099;-64
2021/01/12 09:47:50;;;;;;;5.72;4.03;;;2.70;90.50;;;;;;5086740;28;20111;-62
2021/01/12 09:50:16;;;;;;;4.03;3.35;;;2.70;90.40;;;;;;5093615;28;20526;-64
2021/01/12 09:52:41;;;;;;;4.70;3.53;;;2.70;90.50;;;;;;5094144;28;20028;-64
2021/01/12 09:55:07;;;;;;;6.90;3.95;;;2.70;90.70;;;;;;5093047;28;20036;-64
2021/01/12 09:57:37;;;;;;;4.75;3.50;;;2.70;90.80;;;;;;5094098;28;20107;-64
2021/01/12 10:00:09;;;;;;;3.78;3.05;;;2.70;90.60;;;;;;5085648;28;20037;-63
2021/01/12 10:02:35;;;;;;;5.03;3.38;;;2.80;90.60;;;;;;5073372;28;20032;-63
2021/01/12 10:05:01;;;;;;;4.28;3.45;;;2.80;90.60;;;;;;5054746;28;20043;-63
2021/01/12 10:07:27;;;;;;;4.97;3.22;;;2.80;90.50;;;;;;5073671;28;20040;-68
2021/01/12 10:09:52;;;;;;;4.10;3.13;;;2.80;90.50;;;;;;5072508;28;20047;-64
2021/01/12 10:12:18;;;;;;;5.65;3.30;;;2.80;90.60;;;;;;5072703;28;20039;-65
2021/01/12 10:14:44;;;;;;;4.05;3.10;;;2.90;90.60;;;;;;5054371;28;20071;-63
2021/01/12 10:17:09;;;;;;;3.65;2.80;;;2.90;90.30;;;;;;5072771;28;20110;-65
2021/01/12 10:19:36;;;;;;;3.35;2.88;;;2.90;90.40;;;;;;5054889;28;20506;-65
2021/01/12 10:22:01;;;;;;;6.43;2.72;;;3.00;90.30;;;;;;5072555;28;20542;-65
2021/01/12 10:24:27;;;;;;;3.08;2.42;;;3.00;90.20;;;;;;5072765;28;20040;-66
2021/01/12 10:26:54;;;;;;;2.70;2.40;;;3.10;90.20;;;;;;5072950;28;20094;-65
2021/01/12 10:29:21;;;;;;;3.85;2.60;;;3.10;90.20;;;;;;5072619;28;20032;-66
2021/01/12 10:31:48;;;;;;;3.33;2.67;;;3.20;90.10;;;;;;5072411;28;20041;-66
2021/01/12 10:34:13;;;;;;;4.03;2.33;;;3.20;90.10;;;;;;5075818;28;20085;-65
2021/01/12 10:36:39;;;;;;;2.20;2.00;;;3.30;89.80;;;;;;5076502;28;20449;-66
2021/01/12 10:39:05;;;;;;;4.22;2.40;;;3.30;89.80;;;;;;5077242;28;20033;-65
2021/01/12 10:41:39;;;;;;;2.40;2.13;;;3.30;89.80;;;;;;5076809;28;20036;-65
2021/01/12 10:44:05;;;;;;;2.50;2.30;;;3.40;89.10;;;;;;5076837;28;20067;-65
2021/01/12 10:46:31;;;;;;;4.28;2.65;;;3.40;89.50;;;;;;5076918;28;20040;-66
2021/01/12 10:48:57;;;;;;;2.72;2.28;;;3.40;88.90;;;;;;5087734;28;20032;-66
2021/01/12 10:51:23;;;;;;;2.40;1.98;;;3.50;89.00;;;;;;5078273;28;20043;-66
2021/01/12 10:53:48;;;;;;;2.70;2.50;;;3.50;88.80;;;;;;5096782;28;20040;-67
2021/01/12 10:56:17;;;;;;;2.72;2.13;;;3.50;88.30;;;;;;5079571;28;20495;-64
2021/01/12 10:58:43;;;;;;;3.25;2.40;;;3.50;87.70;;;;;;5079619;28;20062;-64
2021/01/12 11:01:13;;;;;;;2.58;2.28;;;3.60;88.10;;;;;;5099306;28;20036;-64
2021/01/12 11:03:39;;;;;;;3.22;2.10;;;3.60;88.10;;;;;;5101687;28;20035;-66
2021/01/12 11:06:04;;;;;;;3.00;2.30;;;3.60;87.50;;;;;;5108214;28;20040;-67
2021/01/12 11:08:31;;;;;;;2.30;2.10;;;3.50;87.50;;;;;;5106071;28;20025;-66
2021/01/12 11:10:56;;;;;;;2.00;1.80;;;3.50;87.60;;;;;;5088294;28;20437;-67
2021/01/12 11:13:22;;;;;;;2.28;2.05;;;3.60;87.10;;;;;;5073460;28;20040;-67
2021/01/12 11:15:48;;;;;;;2.63;2.35;;;3.60;87.10;;;;;;5086710;28;20048;-65
2021/01/12 11:18:16;;;;;;;3.78;2.10;;;3.60;87.50;;;;;;5066371;28;20427;-68
2021/01/12 11:20:42;;;;;;;2.13;1.90;;;3.60;87.00;;;;;;5075885;28;20510;-68
2021/01/12 11:23:08;;;;;;;2.60;2.08;;;3.60;87.20;;;;;;5092996;28;20044;-66
2021/01/12 11:25:34;;;;;;;3.20;2.13;;;3.60;86.90;;;;;;5096338;28;20138;-64
2021/01/12 11:27:59;;;;;;;4.07;2.28;;;3.60;86.80;;;;;;5096243;28;20537;-64
2021/01/12 11:30:25;;;;;;;4.05;2.33;;;3.60;87.00;;;;;;5060835;28;20449;-62
2021/01/12 11:32:52;;;;;;;2.58;2.13;;;3.60;86.90;;;;;;5085351;28;20048;-61
2021/01/12 11:35:18;;;;;;;2.55;2.13;;;3.60;86.60;;;;;;5084555;28;20031;-61
2021/01/12 11:37:48;;;;;;;2.45;2.15;;;3.70;86.80;;;;;;5096712;28;20112;-61
2021/01/12 11:40:14;;;;;;;2.28;2.03;;;3.60;86.90;;;;;;5095929;28;20064;-62
2021/01/12 11:42:39;;;;;;;2.30;2.10;;;3.60;87.00;;;;;;5097408;28;20055;-62
2021/01/12 11:45:07;;;;;;;3.55;2.10;;;3.60;86.70;;;;;;5096931;28;20036;-63
2021/01/12 11:47:32;;;;;;;2.28;2.08;;;3.60;87.00;;;;;;5099253;28;20024;-63
2021/01/12 11:49:58;;;;;;;4.28;2.28;;;3.60;86.80;;;;;;5098381;28;20189;-63
2021/01/12 11:52:23;;;;;;;2.30;2.10;;;3.70;86.80;;;;;;5095100;28;20036;-63
2021/01/12 11:54:49;;;;;;;2.38;2.10;;;3.70;86.60;;;;;;5093127;28;20138;-60
2021/01/12 11:57:15;;;;;;;2.53;2.33;;;3.70;86.50;;;;;;5095296;28;20506;-63
2021/01/12 11:59:41;;;;;;;2.60;2.20;;;3.80;86.10;;;;;;5085458;28;20094;-63
2021/01/12 12:02:06;;;;;;;2.10;1.90;;;3.70;86.60;;;;;;5074844;28;20048;-63
2021/01/12 12:04:32;;;;;;;2.20;2.00;;;3.70;86.50;;;;;;5081494;28;20436;-63
2021/01/12 12:07:03;;;;;;;2.10;1.90;;;3.70;86.70;;;;;;5093672;28;20048;-62
2021/01/12 12:09:32;;;;;;;2.45;2.08;;;3.70;86.70;;;;;;5088630;28;20036;-63
2021/01/12 12:11:59;;;;;;;2.55;2.30;;;3.70;86.90;;;;;;5056854;28;20119;-63
2021/01/12 12:14:25;;;;;;;2.67;2.28;;;3.80;86.50;;;;;;5077555;28;20395;-63
2021/01/12 12:16:51;;;;;;;2.28;2.00;;;3.70;86.80;;;;;;5076987;28;20039;-63
2021/01/12 12:19:18;;;;;;;2.85;2.30;;;3.70;87.00;;;;;;5073980;28;20414;-62
2021/01/12 12:21:47;;;;;;;2.40;2.20;;;3.60;87.00;;;;;;5074204;28;20063;-61
2021/01/12 12:24:17;;;;;;;3.78;2.60;;;3.70;86.90;;;;;;5076275;28;20079;-62
2021/01/12 12:26:44;;;;;;;3.90;2.63;;;3.80;86.70;;;;;;5095642;28;20039;-61
2021/01/12 12:29:10;;;;;;;2.72;2.30;;;3.80;86.60;;;;;;5096267;28;20028;-58
2021/01/12 12:31:36;;;;;;;3.00;2.25;;;3.70;86.80;;;;;;5079935;28;20077;-65
2021/01/12 12:34:02;;;;;;;3.28;2.47;;;3.70;87.00;;;;;;5091617;28;20511;-65
2021/01/12 12:36:28;;;;;;;3.53;2.70;;;3.70;87.30;;;;;;5067574;28;20032;-66
2021/01/12 12:38:53;;;;;;;3.90;2.13;;;3.70;87.20;;;;;;5094657;28;20067;-66
2021/01/12 12:41:19;;;;;;;2.75;2.25;;;3.70;87.20;;;;;;5096286;28;20054;-66
2021/01/12 12:43:49;;;;;;;2.30;2.10;;;3.60;87.20;;;;;;5081996;28;20043;-67
2021/01/12 12:46:17;;;;;;;2.40;2.20;;;3.80;87.20;;;;;;5089230;28;20044;-66
2021/01/12 12:48:43;;;;;;;2.20;2.00;;;3.70;86.70;;;;;;5086365;28;20027;-65